createdAt,value
2018-12-12T00:00:32.433Z,7.13
2018-12-12T00:03:01.711Z,6.70
2018-12-12T00:05:30.811Z,5.65
2018-12-12T00:07:59.928Z,6.30
2018-12-12T00:10:29.008Z,6.60
2018-12-12T00:12:58.124Z,6.97
2018-12-12T00:15:27.648Z,7.00
2018-12-12T00:17:58.954Z,5.60
2018-12-12T00:20:28.275Z,5.60
2018-12-12T00:22:57.408Z,6.70
2018-12-12T00:28:07.159Z,6.10
2018-12-12T00:30:36.151Z,5.90
2018-12-12T00:33:05.420Z,6.33
2018-12-12T00:35:35.722Z,5.77
2018-12-12T00:38:05.058Z,5.60
2018-12-12T00:43:13.403Z,6.87
2018-12-12T00:45:42.532Z,7.25
2018-12-12T00:50:49.819Z,8.93
2018-12-12T00:53:18.940Z,6.50
2018-12-12T00:55:48.029Z,7.00
2018-12-12T00:58:17.775Z,7.15
2018-12-12T01:00:46.907Z,7.63
2018-12-12T01:03:15.960Z,6.80
2018-12-12T01:05:45.124Z,8.90
2018-12-12T01:08:14.276Z,7.83
2018-12-12T01:10:43.662Z,7.60
2018-12-12T01:13:12.779Z,8.90
2018-12-12T01:15:41.932Z,6.53
2018-12-12T01:20:50.162Z,7.07
2018-12-12T01:25:58.116Z,6.80
2018-12-12T01:28:28.175Z,7.66
2018-12-12T01:30:58.218Z,8.40
2018-12-12T01:33:28.180Z,5.80
2018-12-12T01:35:58.255Z,6.35
2018-12-12T01:38:28.352Z,6.92
2018-12-12T01:40:58.358Z,8.50
2018-12-12T01:43:29.450Z,6.60
2018-12-12T01:45:58.640Z,7.20
2018-12-12T01:48:28.328Z,6.54
2018-12-12T01:53:37.017Z,6.63
2018-12-12T01:58:45.171Z,7.00
2018-12-12T02:01:14.245Z,6.63
2018-12-12T02:03:43.452Z,7.22
2018-12-12T02:06:12.654Z,6.60
2018-12-12T02:11:22.509Z,7.23
2018-12-12T02:13:51.688Z,7.42
2018-12-12T02:16:20.941Z,8.40
2018-12-12T02:18:50.221Z,7.37
2018-12-12T02:21:19.388Z,7.60
2018-12-12T02:23:48.583Z,7.33
2018-12-12T02:26:17.996Z,7.47
2018-12-12T02:28:47.076Z,6.80
2018-12-12T02:31:16.304Z,8.80
2018-12-12T02:33:46.495Z,6.93
2018-12-12T02:36:15.679Z,7.47
2018-12-12T02:38:44.895Z,7.50
2018-12-12T02:41:14.109Z,7.70
2018-12-12T02:43:43.262Z,7.07
2018-12-12T02:46:14.166Z,7.40
2018-12-12T02:48:43.316Z,8.00
2018-12-12T02:51:12.440Z,8.33
2018-12-12T02:56:19.765Z,9.30
2018-12-12T02:58:49.000Z,6.63
2018-12-12T03:03:57.667Z,7.13
2018-12-12T03:06:27.259Z,8.15
2018-12-12T03:08:56.476Z,7.50
2018-12-12T03:11:26.228Z,8.18
2018-12-12T03:13:55.336Z,8.33
2018-12-12T03:16:24.552Z,7.85
2018-12-12T03:21:33.612Z,6.97
2018-12-12T03:24:02.823Z,6.93
2018-12-12T03:26:32.280Z,4.94
2018-12-12T03:29:01.484Z,7.90
2018-12-12T03:31:30.678Z,6.65
2018-12-12T03:33:59.741Z,8.30
2018-12-12T03:36:29.439Z,6.14
2018-12-12T03:38:59.581Z,7.30
2018-12-12T03:41:29.592Z,7.58
2018-12-12T03:43:59.518Z,5.30
2018-12-12T03:46:29.692Z,7.28
2018-12-12T03:51:42.389Z,5.73
2018-12-12T03:54:11.500Z,8.20
2018-12-12T03:59:19.164Z,7.50
2018-12-12T04:01:48.340Z,6.83
2018-12-12T04:04:18.015Z,8.28
2018-12-12T04:06:47.248Z,6.12
2018-12-12T04:09:16.340Z,6.80
2018-12-12T04:14:24.895Z,6.70
2018-12-12T04:16:54.068Z,6.13
2018-12-12T04:19:23.440Z,7.30
2018-12-12T04:21:52.674Z,8.20
2018-12-12T04:27:03.346Z,6.70
2018-12-12T04:29:32.548Z,7.43
2018-12-12T04:32:01.663Z,8.10
2018-12-12T04:34:30.863Z,7.43
2018-12-12T04:36:59.967Z,9.30
2018-12-12T04:39:30.010Z,8.50
2018-12-12T04:44:39.489Z,8.70
2018-12-12T04:47:08.597Z,8.03
2018-12-12T04:52:16.015Z,8.47
2018-12-12T04:54:45.137Z,8.83
2018-12-12T04:57:14.307Z,10.40
2018-12-12T04:59:43.471Z,11.03
2018-12-12T05:04:56.648Z,9.13
2018-12-12T05:07:25.864Z,9.63
2018-12-12T05:09:54.991Z,8.30
2018-12-12T05:12:24.068Z,10.13
2018-12-12T05:17:32.382Z,10.33
2018-12-12T05:20:01.584Z,9.80
2018-12-12T05:22:30.728Z,12.05
2018-12-12T05:25:00.331Z,11.90
2018-12-12T05:27:30.416Z,11.68
2018-12-12T05:30:00.284Z,11.80
2018-12-12T05:32:30.292Z,10.40
2018-12-12T05:35:00.401Z,10.90
2018-12-12T05:37:30.373Z,10.84
2018-12-12T05:40:00.344Z,9.15
2018-12-12T05:42:30.748Z,11.32
2018-12-12T05:45:00.571Z,12.15
2018-12-12T05:47:32.059Z,12.62
2018-12-12T05:50:01.176Z,11.37
2018-12-12T05:55:08.258Z,12.90
2018-12-12T05:57:37.333Z,13.13
2018-12-12T06:00:08.988Z,13.30
2018-12-12T06:02:38.095Z,13.68
2018-12-12T06:07:46.434Z,15.37
2018-12-12T06:10:15.518Z,12.10
2018-12-12T06:12:46.083Z,14.15
2018-12-12T06:15:15.333Z,13.33
2018-12-12T06:17:44.580Z,13.20
2018-12-12T06:20:13.888Z,13.97
2018-12-12T06:25:22.542Z,11.87
2018-12-12T06:27:51.808Z,13.13
2018-12-12T06:30:20.979Z,13.28
2018-12-12T06:35:29.301Z,12.13
2018-12-12T06:37:58.762Z,13.10
2018-12-12T06:40:27.915Z,14.67
2018-12-12T06:42:56.910Z,13.30
2018-12-12T06:45:26.047Z,15.15
2018-12-12T06:50:34.773Z,13.30
2018-12-12T06:53:03.881Z,12.97
2018-12-12T06:55:32.991Z,13.37
2018-12-12T06:58:02.102Z,16.15
2018-12-12T07:00:31.178Z,15.28
2018-12-12T07:03:01.302Z,14.10
2018-12-12T07:05:31.344Z,13.54
2018-12-12T07:08:01.265Z,13.45
2018-12-12T07:15:29.225Z,12.40
2018-12-12T07:17:58.321Z,13.58
2018-12-12T07:20:27.356Z,13.70
2018-12-12T07:22:56.530Z,15.13
2018-12-12T07:25:25.708Z,16.23
2018-12-12T07:30:35.062Z,13.70
2018-12-12T07:33:04.280Z,15.60
2018-12-12T07:35:33.452Z,17.57
2018-12-12T07:38:02.643Z,15.80
2018-12-12T07:40:31.712Z,15.28
2018-12-12T07:43:01.691Z,17.20
2018-12-12T07:45:31.876Z,16.66
2018-12-12T07:48:01.721Z,18.17
2018-12-12T07:53:10.945Z,19.27
2018-12-12T07:55:40.065Z,17.35
2018-12-12T07:58:09.127Z,15.67
2018-12-12T08:00:38.381Z,17.05
2018-12-12T08:03:07.623Z,18.90
2018-12-12T08:05:36.816Z,14.82
2018-12-12T08:08:07.291Z,14.35
2018-12-12T08:10:36.364Z,10.63
2018-12-12T08:13:05.580Z,16.30
2018-12-12T08:15:36.131Z,16.50
2018-12-12T08:20:44.346Z,15.43
2018-12-12T08:25:53.660Z,16.93
2018-12-12T08:28:22.824Z,15.95
2018-12-12T08:30:51.995Z,17.57
2018-12-12T08:33:22.244Z,15.50
2018-12-12T08:35:51.388Z,16.10
2018-12-12T08:40:59.593Z,13.30
2018-12-12T08:43:28.748Z,15.85
2018-12-12T08:45:57.920Z,16.80
2018-12-12T08:51:04.919Z,14.53
2018-12-12T08:56:13.071Z,14.10
2018-12-12T09:01:20.837Z,14.90
2018-12-12T09:06:29.178Z,14.70
2018-12-12T09:08:58.320Z,15.43
2018-12-12T09:11:27.461Z,12.70
2018-12-12T09:13:56.616Z,14.47
2018-12-12T09:16:25.944Z,14.40
2018-12-12T09:18:55.127Z,15.97
2018-12-12T09:21:24.304Z,15.07
2018-12-12T09:26:32.511Z,16.27
2018-12-12T09:29:02.555Z,13.88
2018-12-12T09:31:32.570Z,14.44
2018-12-12T09:36:41.666Z,15.97
2018-12-12T09:39:10.830Z,14.63
2018-12-12T09:41:40.032Z,14.10
2018-12-12T09:44:09.281Z,14.50
2018-12-12T09:46:38.380Z,14.03
2018-12-12T09:49:07.624Z,17.10
2018-12-12T09:54:15.204Z,16.90
2018-12-12T09:59:23.364Z,14.93
2018-12-12T10:01:52.484Z,15.97
2018-12-12T10:04:21.632Z,13.30
2018-12-12T10:06:50.828Z,15.50
2018-12-12T10:09:19.951Z,14.13
2018-12-12T10:14:27.731Z,15.30
2018-12-12T10:16:56.952Z,14.37
2018-12-12T10:19:26.111Z,14.03
2018-12-12T10:21:55.607Z,13.53
2018-12-12T10:24:25.720Z,14.03
2018-12-12T10:29:33.988Z,15.03
2018-12-12T10:32:03.304Z,16.25
2018-12-12T10:34:33.394Z,11.38
2018-12-12T10:37:03.298Z,14.33
2018-12-12T10:39:33.388Z,16.90
2018-12-12T10:42:03.518Z,15.68
2018-12-12T10:44:33.520Z,15.30
2018-12-12T10:47:03.451Z,17.27
2018-12-12T10:52:11.209Z,16.60
2018-12-12T10:54:40.436Z,16.48
2018-12-12T10:59:48.292Z,16.40
2018-12-12T11:02:23.423Z,16.57
2018-12-12T11:04:52.600Z,17.60
2018-12-12T11:07:21.692Z,16.13
2018-12-12T11:12:29.364Z,17.10
2018-12-12T11:14:58.885Z,14.70
2018-12-12T11:17:28.054Z,15.20
2018-12-12T11:19:57.195Z,14.63
2018-12-12T11:25:05.410Z,15.13
2018-12-12T11:27:34.731Z,16.40
2018-12-12T11:32:43.765Z,16.20
2018-12-12T11:37:52.143Z,17.50
2018-12-12T11:40:21.247Z,16.40
2018-12-12T11:42:50.402Z,16.95
2018-12-12T11:45:19.596Z,16.83
2018-12-12T11:47:48.733Z,16.57
2018-12-12T11:52:57.154Z,16.20
2018-12-12T11:55:26.264Z,16.85
2018-12-12T11:57:55.329Z,17.00
2018-12-12T12:00:24.620Z,16.53
2018-12-12T12:02:53.830Z,15.87
2018-12-12T12:05:22.962Z,17.60
2018-12-12T12:07:52.135Z,16.40
2018-12-12T12:10:21.404Z,15.50
2018-12-12T12:12:50.580Z,15.60
2018-12-12T12:15:19.671Z,17.10
2018-12-12T12:17:48.795Z,16.50
2018-12-12T12:22:57.520Z,15.80
2018-12-12T12:25:26.676Z,16.62
2018-12-12T12:27:55.731Z,15.47
2018-12-12T12:33:04.116Z,14.20
2018-12-12T12:38:13.447Z,15.50
2018-12-12T12:40:42.547Z,15.90
2018-12-12T12:43:11.612Z,14.80
2018-12-12T12:48:19.958Z,15.10
2018-12-12T12:53:28.023Z,16.00
2018-12-12T12:55:57.084Z,14.83
2018-12-12T12:58:26.204Z,16.43
2018-12-12T13:03:34.487Z,13.90
2018-12-12T13:06:04.584Z,14.70
2018-12-12T13:08:34.700Z,14.82
2018-12-12T13:11:05.935Z,16.37
2018-12-12T13:13:35.165Z,15.97
2018-12-12T13:16:04.908Z,16.23
2018-12-12T13:18:34.687Z,16.10
2018-12-12T13:21:04.934Z,15.40
2018-12-12T13:23:34.683Z,16.27
2018-12-12T13:26:04.859Z,16.17
2018-12-12T13:28:34.876Z,15.05
2018-12-12T13:31:05.035Z,17.00
2018-12-12T13:36:14.698Z,17.90
2018-12-12T13:38:43.875Z,16.87
2018-12-12T13:41:13.008Z,15.80
2018-12-12T13:43:42.195Z,16.63
2018-12-12T13:46:11.410Z,16.13
2018-12-12T13:51:19.727Z,15.77
2018-12-12T13:53:48.820Z,18.00
2018-12-12T13:56:17.894Z,17.35
2018-12-12T13:58:47.107Z,15.33
2018-12-12T14:01:16.259Z,16.43
2018-12-12T14:03:45.374Z,15.33
2018-12-12T14:06:14.384Z,14.87
2018-12-12T14:08:43.464Z,16.13
2018-12-12T14:11:12.588Z,16.10
2018-12-12T14:13:42.912Z,14.37
2018-12-12T14:16:12.101Z,14.90
2018-12-12T14:18:41.239Z,15.88
2018-12-12T14:21:11.443Z,17.40
2018-12-12T14:23:40.652Z,15.10
2018-12-12T14:26:09.807Z,16.87
2018-12-12T14:28:38.829Z,14.77
2018-12-12T14:31:08.076Z,15.13
2018-12-12T14:33:37.256Z,15.47
2018-12-12T14:36:06.424Z,15.07
2018-12-12T14:38:35.591Z,15.53
2018-12-12T14:41:05.758Z,14.68
2018-12-12T14:46:14.760Z,12.67
2018-12-12T14:51:22.038Z,12.77
2018-12-12T14:53:51.285Z,13.50
2018-12-12T14:56:20.427Z,12.90
2018-12-12T14:58:50.732Z,13.45
2018-12-12T15:01:19.904Z,16.00
2018-12-12T15:03:49.205Z,15.05
2018-12-12T15:06:18.312Z,13.43
2018-12-12T15:08:47.444Z,13.50
2018-12-12T15:11:17.656Z,15.50
2018-12-12T15:13:46.844Z,14.83
2018-12-12T15:16:16.088Z,12.70
2018-12-12T15:18:45.298Z,13.97
2018-12-12T15:21:14.532Z,12.87
2018-12-12T15:23:43.622Z,12.70
2018-12-12T15:28:52.007Z,12.80
2018-12-12T15:31:21.272Z,13.63
2018-12-12T15:33:50.468Z,15.40
2018-12-12T15:36:19.708Z,13.30
2018-12-12T15:38:48.815Z,12.25
2018-12-12T15:41:17.996Z,11.77
2018-12-12T15:43:47.143Z,12.30
2018-12-12T15:46:16.587Z,12.33
2018-12-12T15:48:45.712Z,13.17
2018-12-12T15:51:14.724Z,12.83
2018-12-12T15:56:21.482Z,12.90
2018-12-12T15:58:50.740Z,13.37
2018-12-12T16:01:19.937Z,12.67
2018-12-12T16:03:49.075Z,13.75
2018-12-12T16:06:18.196Z,14.00
2018-12-12T16:08:47.259Z,14.27
2018-12-12T16:11:16.356Z,13.83
2018-12-12T16:13:45.512Z,13.87
2018-12-12T16:16:14.637Z,24.30
2018-12-12T16:18:43.780Z,15.17
2018-12-12T16:21:12.928Z,14.15
2018-12-12T16:26:21.192Z,13.60
2018-12-12T16:28:50.330Z,13.62
2018-12-12T16:33:58.072Z,12.50
2018-12-12T16:36:27.843Z,14.40
2018-12-12T16:38:56.979Z,15.17
2018-12-12T16:41:26.316Z,14.07
2018-12-12T16:43:55.495Z,15.40
2018-12-12T16:46:24.844Z,14.73
2018-12-12T16:51:32.208Z,17.57
2018-12-12T16:54:01.361Z,16.33
2018-12-12T16:59:09.596Z,15.93
2018-12-12T17:04:18.024Z,16.83
2018-12-12T17:09:26.461Z,17.17
2018-12-12T17:11:55.660Z,14.80
2018-12-12T17:17:05.037Z,13.97
2018-12-12T17:22:13.316Z,12.87
2018-12-12T17:24:42.616Z,12.20
2018-12-12T17:27:11.734Z,10.93
2018-12-12T17:29:40.956Z,11.57
2018-12-12T17:32:10.233Z,11.70
2018-12-12T17:34:39.379Z,10.70
2018-12-12T17:37:09.455Z,8.23
2018-12-12T17:39:39.370Z,9.45
2018-12-12T17:42:09.556Z,8.58
2018-12-12T17:44:39.369Z,7.92
2018-12-12T17:47:09.388Z,8.30
2018-12-12T17:49:39.507Z,9.00
2018-12-12T17:52:09.537Z,7.17
2018-12-12T17:57:18.603Z,7.97
2018-12-12T17:59:47.724Z,8.47
2018-12-12T18:02:18.067Z,8.30
2018-12-12T18:04:47.236Z,8.20
2018-12-12T18:07:16.436Z,8.30
2018-12-12T18:09:45.617Z,8.03
2018-12-12T18:12:15.825Z,9.28
2018-12-12T18:14:44.993Z,7.37
2018-12-12T18:17:14.176Z,7.10
2018-12-12T18:19:43.408Z,7.40
2018-12-12T18:22:12.510Z,7.77
2018-12-12T18:24:41.578Z,8.10
2018-12-12T18:27:10.749Z,8.23
2018-12-12T18:29:39.837Z,7.10
2018-12-12T18:32:09.909Z,8.40
2018-12-12T18:34:39.896Z,7.85
2018-12-12T18:37:09.768Z,7.78
2018-12-12T18:39:40.069Z,6.92
2018-12-12T18:42:09.888Z,8.10
2018-12-12T18:44:39.980Z,5.62
2018-12-12T18:47:10.022Z,7.12
2018-12-12T18:49:40.036Z,6.67
2018-12-12T18:54:48.260Z,6.30
2018-12-12T18:57:18.003Z,7.67
2018-12-12T18:59:47.139Z,7.30
2018-12-12T19:02:16.259Z,7.03
2018-12-12T19:04:45.411Z,6.70
2018-12-12T19:07:14.666Z,6.65
2018-12-12T19:09:43.861Z,7.05
2018-12-12T19:12:13.119Z,7.80
2018-12-12T19:14:47.653Z,7.33
2018-12-12T19:19:57.308Z,8.30
2018-12-12T19:22:26.697Z,8.05
2018-12-12T19:24:56.937Z,7.37
2018-12-12T19:27:26.057Z,7.57
2018-12-12T19:29:55.145Z,6.83
2018-12-12T19:32:24.188Z,7.70
2018-12-12T19:34:53.204Z,6.87
2018-12-12T19:37:23.326Z,6.70
2018-12-12T19:39:52.400Z,7.12
2018-12-12T19:42:21.572Z,6.83
2018-12-12T19:47:29.740Z,7.20
2018-12-12T19:52:37.495Z,6.90
2018-12-12T19:55:08.446Z,7.25
2018-12-12T19:57:37.524Z,7.50
2018-12-12T20:00:07.425Z,8.03
2018-12-12T20:02:37.673Z,8.30
2018-12-12T20:05:07.199Z,6.78
2018-12-12T20:07:36.373Z,7.70
2018-12-12T20:12:45.063Z,7.83
2018-12-12T20:18:05.524Z,6.83
2018-12-12T20:20:34.687Z,6.65
2018-12-12T20:23:03.841Z,7.43
2018-12-12T20:25:33.062Z,7.90
2018-12-12T20:28:02.212Z,7.20
2018-12-12T20:30:35.306Z,8.33
2018-12-12T20:33:02.372Z,8.30
2018-12-12T20:35:31.777Z,8.75
2018-12-12T20:38:00.911Z,7.50
2018-12-12T20:40:30.080Z,8.85
2018-12-12T20:45:38.203Z,9.40
2018-12-12T20:48:07.360Z,9.63
2018-12-12T20:53:14.528Z,9.87
2018-12-12T20:55:43.630Z,8.00
2018-12-12T20:58:12.783Z,8.90
2018-12-12T21:00:41.980Z,8.23
2018-12-12T21:03:11.475Z,9.18
2018-12-12T21:05:41.414Z,9.00
2018-12-12T21:08:11.551Z,9.73
2018-12-12T21:10:41.569Z,9.85
2018-12-12T21:13:11.580Z,9.65
2018-12-12T21:15:45.748Z,10.70
2018-12-12T21:18:14.969Z,11.00
2018-12-12T21:20:44.161Z,10.60
2018-12-12T21:23:13.323Z,9.23
2018-12-12T21:28:22.009Z,10.13
2018-12-12T21:30:51.236Z,9.30
2018-12-12T21:33:20.348Z,10.35
2018-12-12T21:35:49.503Z,10.23
2018-12-12T21:40:57.749Z,9.13
2018-12-12T21:43:26.920Z,8.93
2018-12-12T21:45:55.956Z,10.53
2018-12-12T21:48:25.848Z,9.03
2018-12-12T21:50:55.008Z,8.80
2018-12-12T21:53:24.114Z,9.27
2018-12-12T21:55:55.092Z,9.50
2018-12-12T21:58:24.194Z,9.55
2018-12-12T22:00:53.320Z,8.60
2018-12-12T22:03:22.429Z,9.70
2018-12-12T22:05:51.610Z,10.20
2018-12-12T22:10:59.861Z,10.13
2018-12-12T22:13:30.818Z,9.40
2018-12-12T22:15:59.900Z,9.95
2018-12-12T22:18:29.187Z,10.43
2018-12-12T22:20:59.545Z,8.50
2018-12-12T22:23:28.677Z,9.73
2018-12-12T22:25:57.808Z,10.07
2018-12-12T22:28:27.059Z,9.78
2018-12-12T22:30:56.220Z,9.25
2018-12-12T22:33:25.327Z,8.50
2018-12-12T22:35:54.462Z,9.90
2018-12-12T22:38:23.597Z,8.65
2018-12-12T22:40:52.747Z,10.43
2018-12-12T22:43:21.840Z,10.00
2018-12-12T22:45:51.424Z,9.38
2018-12-12T22:48:20.838Z,8.97
2018-12-12T22:50:50.223Z,8.78
2018-12-12T22:53:19.415Z,10.23
2018-12-12T22:55:48.544Z,8.40
2018-12-12T22:58:18.132Z,9.90
2018-12-12T23:04:33.191Z,8.37
2018-12-12T23:07:02.320Z,8.90
2018-12-12T23:09:31.474Z,9.77
2018-12-12T23:12:00.701Z,8.93
2018-12-12T23:14:29.755Z,9.58
2018-12-12T23:19:38.171Z,7.03
2018-12-12T23:22:07.431Z,8.73
2018-12-12T23:24:36.547Z,8.97
2018-12-12T23:27:05.743Z,8.57
2018-12-12T23:29:34.876Z,8.68
2018-12-12T23:32:04.094Z,8.13
2018-12-12T23:34:33.169Z,8.83
2018-12-12T23:39:41.463Z,9.30
2018-12-12T23:42:10.624Z,9.50
2018-12-12T23:44:39.731Z,10.00
2018-12-12T23:47:08.860Z,8.87
2018-12-12T23:52:16.181Z,9.60
2018-12-12T23:54:45.263Z,9.03
2018-12-12T23:57:14.431Z,9.13
